KPLR/PLR METAR and TAF weather

Enter ICAO airport designator
Station Type Date Time Source
KPLR METAR 2019/04/22 18:15 UTC NOAA

KPLR 221815Z AUTO 00000KT 10SM CLR 25/08 A3019 RMK A01


Station Type Date Time Source
KPLR Decoded METAR 2019/04/22 18:15 UTC NOAA

Station name not available
Apr 22, 2019 - 02:15 PM EDT / 2019.04.22 1815 UTC
Wind: Calm:0
Visibility: 10 mile(s):0
Sky conditions: clear
Temperature: 77 F (25 C)
Dew Point: 46 F (8 C)
Relative Humidity: 33%
Pressure (altimeter): 30.19 in. Hg (1022 hPa)
ob: KPLR 221815Z AUTO 00000KT 10SM CLR 25/08 A3019 RMK A01
cycle: 18

Station Type Date Time Source
KPLR TAF UTC NOAA

Error!

Example: see airport list